Time;durP1;ratioP1;P1;durP2;ratioP2;P2;SDS_P1;SDS_P2;PMS_P1;PMS_P2;Temp;Humidity;BMP_temperature;BMP_pressure;BME280_temperature;BME280_humidity;BME280_pressure;Samples;Min_cycle;Max_cycle;Signal;HPM_P1;HPM_P2
2022/10/26 00:02:15;;;;;;;11.27;6.78;;;10.60;99.90;;;;;;5048101;28;20033;-78
2022/10/26 00:04:41;;;;;;;11.45;6.80;;;10.60;99.90;;;;;;5048416;28;20033;-78
2022/10/26 00:07:06;;;;;;;10.43;7.07;;;10.60;99.90;;;;;;5054536;28;20033;-78
2022/10/26 00:09:32;;;;;;;11.38;6.90;;;10.60;99.90;;;;;;5051311;28;20039;-78
2022/10/26 00:11:58;;;;;;;10.88;6.63;;;10.60;99.90;;;;;;5054867;28;20108;-78
2022/10/26 00:14:23;;;;;;;13.52;6.93;;;10.60;99.90;;;;;;5054077;28;20041;-78
2022/10/26 00:16:49;;;;;;;12.27;7.35;;;10.50;99.90;;;;;;5053265;28;20421;-78
2022/10/26 00:19:14;;;;;;;11.77;6.82;;;10.50;99.90;;;;;;5054976;28;20508;-78
2022/10/26 00:21:40;;;;;;;13.13;7.78;;;10.50;99.90;;;;;;5050199;28;20067;-78
2022/10/26 00:24:05;;;;;;;14.23;7.47;;;10.60;99.90;;;;;;5038784;28;20037;-78
2022/10/26 00:26:31;;;;;;;10.15;7.55;;;10.60;99.90;;;;;;5051604;28;20037;-79
2022/10/26 00:28:57;;;;;;;10.18;7.40;;;10.60;99.90;;;;;;5055120;28;20766;-78
2022/10/26 00:31:23;;;;;;;12.85;7.68;;;10.60;99.90;;;;;;5050523;28;20498;-78
2022/10/26 00:33:53;;;;;;;12.93;7.95;;;10.60;99.90;;;;;;5049086;28;20045;-78
2022/10/26 00:36:19;;;;;;;13.70;7.70;;;10.60;99.90;;;;;;5045362;28;20123;-78
2022/10/26 00:38:49;;;;;;;11.10;7.35;;;10.60;99.90;;;;;;5055605;28;20179;-78
2022/10/26 00:41:17;;;;;;;15.20;8.10;;;10.60;99.90;;;;;;5053382;28;20430;-78
2022/10/26 00:43:42;;;;;;;13.68;7.97;;;10.60;99.90;;;;;;5038505;28;20502;-78
2022/10/26 00:46:14;;;;;;;11.90;7.88;;;10.60;99.90;;;;;;5054202;28;20210;-78
2022/10/26 00:48:46;;;;;;;13.43;8.98;;;10.50;99.90;;;;;;5052638;28;20033;-78
2022/10/26 00:51:19;;;;;;;11.57;7.95;;;10.50;99.90;;;;;;5054911;28;20510;-78
2022/10/26 00:53:45;;;;;;;14.57;8.38;;;10.50;99.90;;;;;;5048970;28;20041;-78
2022/10/26 00:56:11;;;;;;;10.63;8.07;;;10.50;99.90;;;;;;5034864;28;20065;-78
2022/10/26 00:58:38;;;;;;;12.00;8.15;;;10.50;99.90;;;;;;5052520;28;20564;-78
2022/10/26 01:01:04;;;;;;;12.27;8.10;;;10.50;99.90;;;;;;5055016;28;20029;-78
2022/10/26 01:03:30;;;;;;;12.45;8.20;;;10.50;99.90;;;;;;5054132;28;20036;-78
2022/10/26 01:05:58;;;;;;;17.67;8.65;;;10.40;99.90;;;;;;5054061;28;20029;-79
2022/10/26 01:08:26;;;;;;;13.02;8.40;;;10.40;99.90;;;;;;5054634;28;20025;-78
2022/10/26 01:10:53;;;;;;;14.32;9.68;;;10.40;99.90;;;;;;5054993;28;20103;-78
2022/10/26 01:13:19;;;;;;;16.33;8.88;;;10.40;99.90;;;;;;5049527;28;20067;-78
2022/10/26 01:16:34;;;;;;;13.98;9.15;;;10.40;99.90;;;;;;5030110;28;20045;-78
2022/10/26 01:19:22;;;;;;;13.88;8.05;;;10.30;99.90;;;;;;4997615;28;20132;-78
2022/10/26 01:22:25;;;;;;;15.85;8.70;;;10.30;99.90;;;;;;5043487;28;20132;-79
2022/10/26 01:25:14;;;;;;;13.48;8.55;;;10.30;99.90;;;;;;4975818;28;20049;-78
2022/10/26 01:27:44;;;;;;;17.02;8.82;;;10.20;99.90;;;;;;5039987;28;20045;-78
2022/10/26 01:30:31;;;;;;;12.25;8.63;;;10.20;99.90;;;;;;5052386;28;20047;-78
2022/10/26 01:33:21;;;;;;;12.43;8.02;;;10.20;99.90;;;;;;5049463;28;20044;-78
2022/10/26 01:36:03;;;;;;;12.25;8.73;;;10.10;99.90;;;;;;5051860;28;20049;-78
2022/10/26 01:39:04;;;;;;;11.90;8.10;;;10.10;99.90;;;;;;5047764;28;20037;-78
2022/10/26 01:41:50;;;;;;;13.43;8.25;;;10.10;99.90;;;;;;5034541;28;20041;-78
2022/10/26 01:44:29;;;;;;;11.85;8.27;;;10.10;99.90;;;;;;5048882;28;20036;-78
2022/10/26 01:46:58;;;;;;;10.85;8.52;;;10.00;99.90;;;;;;5067516;28;20566;-78
2022/10/26 01:49:31;;;;;;;16.67;8.93;;;10.00;99.90;;;;;;5046186;28;20033;-78
2022/10/26 01:51:57;;;;;;;11.32;8.25;;;10.00;99.90;;;;;;5025417;28;20040;-79
2022/10/26 01:54:23;;;;;;;14.10;8.48;;;10.00;99.90;;;;;;5053131;28;20043;-78
2022/10/26 01:56:52;;;;;;;12.48;8.95;;;9.90;99.90;;;;;;5041345;28;20441;-78
2022/10/26 01:59:50;;;;;;;17.17;9.38;;;9.90;99.90;;;;;;5046871;28;20041;-78
2022/10/26 02:02:27;;;;;;;16.45;8.90;;;9.90;99.90;;;;;;5045811;28;20095;-78
2022/10/26 02:05:17;;;;;;;12.10;8.85;;;9.90;99.90;;;;;;5050060;28;20142;-79
2022/10/26 02:08:03;;;;;;;13.00;7.88;;;9.80;99.90;;;;;;5044072;28;20415;-78
2022/10/26 02:10:41;;;;;;;15.25;8.80;;;9.80;99.90;;;;;;5048407;28;20044;-78
2022/10/26 02:13:19;;;;;;;15.45;8.23;;;9.80;99.90;;;;;;5045689;28;20040;-77
2022/10/26 02:15:56;;;;;;;12.13;8.00;;;9.80;99.90;;;;;;5045569;28;20051;-77
2022/10/26 02:19:07;;;;;;;12.32;8.38;;;9.80;99.90;;;;;;5032218;28;20052;-79
2022/10/26 02:21:40;;;;;;;11.85;8.30;;;9.70;99.90;;;;;;5040977;28;20144;-78
2022/10/26 02:24:09;;;;;;;14.50;8.65;;;9.70;99.90;;;;;;5051161;28;20033;-78
2022/10/26 02:26:36;;;;;;;14.63;8.80;;;9.70;99.90;;;;;;5032205;28;20098;-77
2022/10/26 02:29:07;;;;;;;12.23;7.63;;;9.70;99.90;;;;;;5033545;28;20055;-79
2022/10/26 02:31:35;;;;;;;15.25;7.90;;;9.60;99.90;;;;;;5051098;28;20047;-78
2022/10/26 02:34:05;;;;;;;12.55;8.00;;;9.60;99.90;;;;;;5049685;28;20033;-78
2022/10/26 02:36:34;;;;;;;14.23;8.15;;;9.60;99.90;;;;;;5048602;28;20159;-79
2022/10/26 02:39:03;;;;;;;9.98;7.18;;;9.60;99.90;;;;;;5033195;28;20040;-79
2022/10/26 02:41:31;;;;;;;15.55;7.38;;;9.50;99.90;;;;;;5048325;28;20110;-78
2022/10/26 02:44:19;;;;;;;10.05;6.97;;;9.50;99.90;;;;;;5050236;28;20414;-79
2022/10/26 02:46:45;;;;;;;11.75;7.95;;;9.50;99.90;;;;;;5042224;28;20068;-78
2022/10/26 02:49:11;;;;;;;11.20;7.13;;;9.40;99.90;;;;;;5050584;28;20367;-78
2022/10/26 02:51:44;;;;;;;11.73;7.50;;;9.40;99.90;;;;;;5047579;28;20192;-78
2022/10/26 02:54:33;;;;;;;10.93;7.45;;;9.40;99.90;;;;;;5035729;28;20116;-78
2022/10/26 02:57:16;;;;;;;11.70;7.55;;;9.40;99.90;;;;;;5046237;28;20437;-78
2022/10/26 02:59:46;;;;;;;13.82;7.93;;;9.40;99.90;;;;;;5050893;28;20041;-78
2022/10/26 03:02:14;;;;;;;11.77;8.23;;;9.30;99.90;;;;;;5045717;28;20573;-77
2022/10/26 03:04:40;;;;;;;11.77;8.40;;;9.30;99.90;;;;;;5044453;28;20029;-78
2022/10/26 03:07:06;;;;;;;12.20;8.63;;;9.30;99.90;;;;;;5049729;28;20052;-77
2022/10/26 03:09:31;;;;;;;16.30;9.00;;;9.30;99.90;;;;;;5049649;28;20040;-78
2022/10/26 03:11:57;;;;;;;13.98;9.05;;;9.20;99.90;;;;;;5032107;28;20037;-79
2022/10/26 03:14:22;;;;;;;16.35;10.50;;;9.20;99.90;;;;;;5050832;28;20075;-78
2022/10/26 03:16:48;;;;;;;15.95;9.35;;;9.30;99.90;;;;;;5050557;28;20183;-78
2022/10/26 03:19:13;;;;;;;14.55;8.77;;;9.20;99.90;;;;;;5025614;28;20049;-78
2022/10/26 03:21:41;;;;;;;13.52;8.77;;;9.20;99.90;;;;;;5048361;28;20041;-78
2022/10/26 03:24:07;;;;;;;28.75;9.77;;;9.20;99.90;;;;;;5048350;28;20469;-77
2022/10/26 03:26:32;;;;;;;11.90;8.35;;;9.10;99.90;;;;;;5049836;28;20033;-78
2022/10/26 03:28:58;;;;;;;14.02;8.57;;;9.10;99.90;;;;;;5049078;28;20040;-78
2022/10/26 03:31:23;;;;;;;10.10;7.20;;;9.10;99.90;;;;;;5049948;28;20079;-78
2022/10/26 03:33:49;;;;;;;12.00;7.88;;;9.00;99.90;;;;;;5047721;28;20082;-78
2022/10/26 03:36:14;;;;;;;11.23;7.75;;;9.00;99.90;;;;;;5047225;28;20402;-78
2022/10/26 03:38:40;;;;;;;11.43;8.02;;;9.00;99.90;;;;;;5050506;28;20025;-78
2022/10/26 03:41:06;;;;;;;15.70;9.45;;;8.90;99.90;;;;;;5047173;28;20091;-78
2022/10/26 03:43:31;;;;;;;12.38;8.63;;;8.90;99.90;;;;;;5049474;28;20047;-77
2022/10/26 03:45:56;;;;;;;15.65;10.73;;;8.90;99.90;;;;;;5049167;28;20033;-78
2022/10/26 03:48:22;;;;;;;14.68;10.90;;;9.00;99.90;;;;;;5042802;28;20041;-77
2022/10/26 03:50:47;;;;;;;18.92;11.52;;;9.00;99.90;;;;;;5039002;28;20069;-78
2022/10/26 03:53:13;;;;;;;16.83;10.80;;;9.10;99.90;;;;;;5042878;28;20037;-78
2022/10/26 03:55:38;;;;;;;18.73;11.18;;;9.10;99.90;;;;;;5046718;28;20533;-78
2022/10/26 03:58:04;;;;;;;17.38;11.38;;;9.20;99.90;;;;;;5042296;28;20048;-78
2022/10/26 04:00:30;;;;;;;19.13;11.70;;;9.20;99.90;;;;;;5049122;28;20116;-77
2022/10/26 04:02:57;;;;;;;16.38;11.20;;;9.20;99.90;;;;;;5046234;28;20043;-78
2022/10/26 04:05:24;;;;;;;19.77;11.35;;;9.20;99.90;;;;;;5047831;28;20036;-78
2022/10/26 04:07:58;;;;;;;16.17;10.55;;;9.20;99.90;;;;;;5043868;28;20163;-78
2022/10/26 04:10:25;;;;;;;14.93;10.68;;;9.30;99.90;;;;;;5032552;28;20039;-78
2022/10/26 04:12:52;;;;;;;17.90;11.32;;;9.30;99.90;;;;;;5047307;28;20069;-78
2022/10/26 04:15:18;;;;;;;16.15;10.55;;;9.30;99.90;;;;;;5043073;28;20120;-78
2022/10/26 04:17:44;;;;;;;18.17;11.23;;;9.20;99.90;;;;;;5041609;28;20052;-78
2022/10/26 04:20:10;;;;;;;15.68;10.75;;;9.20;99.90;;;;;;5048355;28;20045;-78
2022/10/26 04:22:36;;;;;;;18.65;12.15;;;9.20;99.90;;;;;;5048249;28;20382;-78
2022/10/26 04:25:03;;;;;;;17.88;11.07;;;9.20;99.90;;;;;;5048272;28;20059;-78
2022/10/26 04:27:29;;;;;;;18.30;11.35;;;9.20;99.90;;;;;;5048827;28;20032;-78
2022/10/26 04:29:54;;;;;;;20.08;11.15;;;9.30;99.90;;;;;;5026237;28;20099;-79
2022/10/26 04:32:20;;;;;;;15.45;11.07;;;9.30;99.90;;;;;;5037933;28;20048;-78
2022/10/26 04:34:45;;;;;;;16.63;11.27;;;9.30;99.90;;;;;;5039747;28;20462;-78
2022/10/26 04:37:11;;;;;;;17.05;10.82;;;9.30;99.90;;;;;;5040948;28;20466;-78
2022/10/26 04:39:37;;;;;;;18.75;10.93;;;9.30;99.90;;;;;;5049298;28;20582;-78
2022/10/26 04:42:02;;;;;;;16.42;11.35;;;9.30;99.90;;;;;;5046770;28;20549;-79
2022/10/26 04:44:28;;;;;;;19.30;12.23;;;9.30;99.90;;;;;;5049605;28;20071;-78
2022/10/26 04:46:53;;;;;;;18.17;11.25;;;9.30;99.90;;;;;;5027379;28;20029;-78
2022/10/26 04:49:19;;;;;;;21.02;12.90;;;9.30;99.90;;;;;;5048098;28;20072;-78
2022/10/26 04:51:44;;;;;;;17.67;12.93;;;9.40;99.90;;;;;;5048094;28;20041;-78
2022/10/26 04:54:10;;;;;;;20.95;12.65;;;9.40;99.90;;;;;;5045747;28;20047;-78
2022/10/26 04:56:35;;;;;;;19.17;13.18;;;9.40;99.90;;;;;;5052084;28;20040;-78
2022/10/26 04:59:01;;;;;;;18.58;12.52;;;9.50;99.90;;;;;;5051554;28;20402;-78
2022/10/26 05:01:27;;;;;;;18.77;12.20;;;9.50;99.90;;;;;;5046128;28;20068;-78
2022/10/26 05:03:53;;;;;;;19.13;12.50;;;9.50;99.90;;;;;;5050892;28;20040;-78
2022/10/26 05:06:19;;;;;;;17.98;13.13;;;9.50;99.90;;;;;;5050297;28;20021;-78
2022/10/26 05:08:45;;;;;;;19.42;12.90;;;9.50;99.90;;;;;;5050158;28;20550;-78
2022/10/26 05:11:11;;;;;;;21.95;12.20;;;9.60;99.90;;;;;;5051366;28;20136;-78
2022/10/26 05:13:36;;;;;;;22.10;13.20;;;9.60;99.90;;;;;;5026121;28;20079;-78
2022/10/26 05:16:02;;;;;;;20.73;13.10;;;9.60;99.90;;;;;;5051911;28;20510;-78
2022/10/26 05:18:27;;;;;;;20.52;13.52;;;9.60;99.90;;;;;;5048952;28;20029;-78
2022/10/26 05:20:53;;;;;;;18.25;12.77;;;9.60;99.90;;;;;;5050984;28;20116;-77
2022/10/26 05:23:19;;;;;;;22.33;14.10;;;9.60;99.90;;;;;;5046295;28;20033;-78
2022/10/26 05:25:45;;;;;;;19.40;13.25;;;9.60;99.90;;;;;;5050188;28;20510;-79
2022/10/26 05:28:12;;;;;;;18.70;12.35;;;9.60;99.90;;;;;;5050556;28;20052;-78
2022/10/26 05:30:42;;;;;;;19.20;12.80;;;9.60;99.90;;;;;;5051748;28;20124;-78
2022/10/26 05:33:09;;;;;;;22.58;13.60;;;9.60;99.90;;;;;;5051082;28;20593;-77
2022/10/26 05:35:35;;;;;;;21.15;13.18;;;9.60;99.90;;;;;;5047394;28;20627;-79
2022/10/26 05:38:09;;;;;;;20.60;13.82;;;9.60;99.90;;;;;;5033179;28;20029;-78
2022/10/26 05:40:35;;;;;;;18.30;12.73;;;9.60;99.90;;;;;;5052559;28;20506;-78
2022/10/26 05:43:01;;;;;;;21.67;14.10;;;9.60;99.90;;;;;;5050299;28;20091;-77
2022/10/26 05:45:28;;;;;;;24.15;13.60;;;9.60;99.90;;;;;;5052444;28;20029;-78
2022/10/26 05:47:53;;;;;;;23.02;14.43;;;9.60;99.90;;;;;;5052711;28;20037;-78
2022/10/26 05:50:19;;;;;;;21.98;13.60;;;9.70;99.90;;;;;;5053026;28;20124;-78
2022/10/26 05:52:46;;;;;;;20.77;13.13;;;9.70;99.90;;;;;;5050505;28;20044;-78
2022/10/26 05:55:15;;;;;;;20.83;13.05;;;9.70;99.90;;;;;;5047827;28;20418;-78
2022/10/26 05:57:40;;;;;;;22.23;14.05;;;9.70;99.90;;;;;;5052826;28;20037;-78
2022/10/26 06:00:08;;;;;;;24.63;13.77;;;9.70;99.90;;;;;;5052631;28;20140;-79
2022/10/26 06:03:06;;;;;;;18.42;12.98;;;9.70;99.90;;;;;;5048556;28;20458;-77
2022/10/26 06:05:43;;;;;;;20.75;13.30;;;9.70;99.90;;;;;;5052140;28;20616;-79
2022/10/26 06:08:09;;;;;;;21.80;13.25;;;9.70;99.90;;;;;;5049379;28;20029;-79
2022/10/26 06:10:36;;;;;;;20.23;12.93;;;9.80;99.90;;;;;;5052420;28;20114;-78
2022/10/26 06:13:01;;;;;;;19.05;13.05;;;9.80;99.90;;;;;;5053002;28;20051;-79
2022/10/26 06:15:31;;;;;;;19.83;12.52;;;9.80;99.90;;;;;;5052440;28;20037;-78
2022/10/26 06:18:16;;;;;;;20.38;12.95;;;9.80;99.90;;;;;;5051308;28;20048;-79
2022/10/26 06:20:53;;;;;;;20.20;13.05;;;9.80;99.90;;;;;;5052448;28;20099;-78
2022/10/26 06:23:39;;;;;;;19.13;11.73;;;9.90;99.90;;;;;;5035473;28;20037;-77
2022/10/26 06:26:22;;;;;;;18.30;12.70;;;9.90;99.90;;;;;;5052375;28;20520;-78
2022/10/26 06:29:16;;;;;;;18.90;12.18;;;9.90;99.90;;;;;;5033112;28;20056;-78
2022/10/26 06:31:42;;;;;;;22.90;11.55;;;9.90;99.90;;;;;;5019094;28;20049;-78
2022/10/26 06:34:11;;;;;;;20.38;12.60;;;9.90;99.90;;;;;;5016595;28;20053;-79
2022/10/26 06:36:39;;;;;;;17.42;11.80;;;10.00;99.90;;;;;;5052494;28;20040;-79
2022/10/26 06:39:10;;;;;;;20.45;11.90;;;10.00;99.90;;;;;;5047396;28;20040;-77
2022/10/26 06:41:37;;;;;;;21.13;12.50;;;10.00;99.90;;;;;;5052247;28;20499;-78
2022/10/26 06:44:05;;;;;;;19.55;12.05;;;10.10;99.90;;;;;;5052630;28;20076;-80
2022/10/26 06:46:40;;;;;;;16.63;10.85;;;10.10;99.90;;;;;;5051577;28;20474;-79
2022/10/26 06:49:33;;;;;;;17.92;11.20;;;10.10;99.90;;;;;;5053503;28;20041;-77
2022/10/26 06:52:15;;;;;;;20.37;10.83;;;10.20;99.90;;;;;;5051898;28;20048;-78
2022/10/26 06:54:50;;;;;;;16.17;10.38;;;10.20;99.90;;;;;;5051955;28;20044;-78
2022/10/26 06:57:18;;;;;;;18.98;11.40;;;10.20;99.90;;;;;;5052356;28;20041;-78
2022/10/26 06:59:55;;;;;;;16.50;10.77;;;10.20;99.90;;;;;;5052052;28;20083;-78
2022/10/26 07:02:21;;;;;;;15.30;10.50;;;10.30;99.90;;;;;;5051794;28;20458;-79
2022/10/26 07:04:46;;;;;;;17.75;10.80;;;10.30;99.90;;;;;;5051507;28;20143;-77
2022/10/26 07:07:21;;;;;;;15.02;10.70;;;10.30;99.90;;;;;;5051670;28;20072;-77
2022/10/26 07:09:48;;;;;;;16.83;11.15;;;10.30;99.90;;;;;;5051390;28;20406;-78
2022/10/26 07:12:13;;;;;;;17.00;10.77;;;10.40;99.90;;;;;;5051394;28;20079;-78
2022/10/26 07:14:39;;;;;;;18.55;11.13;;;10.40;99.90;;;;;;5050330;28;20041;-78
2022/10/26 07:17:05;;;;;;;15.23;10.90;;;10.40;99.90;;;;;;5050450;28;20048;-77
2022/10/26 07:19:31;;;;;;;16.55;10.55;;;10.40;99.90;;;;;;5051308;28;20040;-78
2022/10/26 07:22:00;;;;;;;19.27;10.63;;;10.40;99.90;;;;;;5051214;28;20410;-78
2022/10/26 07:24:26;;;;;;;18.27;10.85;;;10.40;99.90;;;;;;5050823;28;20114;-79
2022/10/26 07:26:57;;;;;;;16.55;9.90;;;10.50;99.90;;;;;;5050712;28;20572;-78
2022/10/26 07:29:23;;;;;;;14.73;10.50;;;10.50;99.90;;;;;;5051409;28;20048;-78
2022/10/26 07:31:49;;;;;;;16.23;10.63;;;10.50;99.90;;;;;;5051094;28;20076;-77
2022/10/26 07:34:15;;;;;;;17.30;10.38;;;10.50;99.90;;;;;;5052547;28;20486;-78
2022/10/26 07:36:41;;;;;;;15.27;9.52;;;10.60;99.90;;;;;;5053761;28;20102;-78
2022/10/26 07:39:07;;;;;;;15.55;9.88;;;10.60;99.90;;;;;;5050847;28;20090;-78
2022/10/26 07:41:32;;;;;;;13.50;9.20;;;10.70;99.90;;;;;;5050635;28;20032;-79
2022/10/26 07:43:58;;;;;;;13.85;9.50;;;10.70;99.90;;;;;;5051179;28;20465;-79
2022/10/26 07:46:25;;;;;;;16.00;9.57;;;10.80;99.90;;;;;;5034371;28;20033;-78
2022/10/26 07:48:50;;;;;;;14.07;9.32;;;10.80;99.90;;;;;;5052072;28;20040;-79
2022/10/26 07:51:16;;;;;;;17.85;9.38;;;10.90;99.90;;;;;;5051031;28;20457;-78
2022/10/26 07:53:41;;;;;;;16.70;9.05;;;10.90;99.90;;;;;;5051314;28;20037;-77
2022/10/26 07:56:08;;;;;;;12.82;9.18;;;11.00;99.90;;;;;;5050230;28;20105;-78
2022/10/26 07:58:35;;;;;;;15.00;8.65;;;11.00;99.90;;;;;;5034302;28;20043;-78
2022/10/26 08:01:10;;;;;;;12.80;8.40;;;11.10;99.90;;;;;;5050496;28;20059;-78
2022/10/26 08:03:36;;;;;;;13.63;8.45;;;11.20;99.90;;;;;;5050709;28;20076;-77
2022/10/26 08:06:03;;;;;;;12.25;8.20;;;11.20;99.90;;;;;;5051302;28;20091;-79
2022/10/26 08:08:28;;;;;;;13.05;7.97;;;11.30;99.90;;;;;;5051314;28;20052;-79
2022/10/26 08:10:54;;;;;;;13.38;8.32;;;11.30;99.90;;;;;;5050752;28;20032;-77
2022/10/26 08:13:19;;;;;;;11.52;8.13;;;11.40;99.90;;;;;;5052030;28;20105;-78
2022/10/26 08:15:46;;;;;;;13.57;7.60;;;11.50;99.90;;;;;;5047967;28;20035;-78
2022/10/26 08:18:12;;;;;;;11.02;7.97;;;11.60;99.90;;;;;;5049476;28;20044;-79
2022/10/26 08:20:37;;;;;;;13.73;7.85;;;11.60;99.90;;;;;;5050463;28;20033;-79
2022/10/26 08:23:05;;;;;;;13.98;7.72;;;11.70;99.90;;;;;;5049684;28;20037;-79
2022/10/26 08:25:31;;;;;;;12.55;7.05;;;11.80;99.90;;;;;;5049300;28;20067;-79
2022/10/26 08:28:01;;;;;;;11.70;7.32;;;11.90;99.90;;;;;;5035553;28;20159;-78
2022/10/26 08:30:26;;;;;;;11.45;6.70;;;12.00;99.90;;;;;;5054950;28;20041;-79
2022/10/26 08:33:04;;;;;;;11.88;6.60;;;12.20;99.90;;;;;;5054634;28;20051;-77
2022/10/26 08:35:30;;;;;;;10.60;6.72;;;12.30;99.90;;;;;;5038072;28;20036;-79
2022/10/26 08:37:55;;;;;;;10.20;6.18;;;12.50;99.90;;;;;;5053846;28;20040;-79
2022/10/26 08:40:26;;;;;;;11.05;5.82;;;12.60;99.90;;;;;;5050848;28;20045;-79
2022/10/26 08:43:00;;;;;;;8.57;5.20;;;12.70;99.90;;;;;;5054771;28;20499;-79
2022/10/26 08:45:34;;;;;;;7.72;5.00;;;12.80;99.90;;;;;;5054960;28;20049;-79
2022/10/26 08:48:10;;;;;;;13.70;5.57;;;13.00;99.90;;;;;;5054659;28;20040;-80
2022/10/26 08:50:46;;;;;;;9.57;5.43;;;13.00;99.90;;;;;;5054752;28;20072;-79
2022/10/26 08:53:35;;;;;;;9.73;5.47;;;13.10;99.90;;;;;;5037442;28;20055;-78
2022/10/26 08:56:12;;;;;;;10.30;5.55;;;13.30;99.90;;;;;;5054600;28;20044;-79
2022/10/26 08:58:42;;;;;;;11.68;5.53;;;13.40;99.90;;;;;;5054958;28;20123;-79
2022/10/26 09:01:08;;;;;;;12.68;5.00;;;13.40;99.90;;;;;;5037669;28;20122;-79
2022/10/26 09:03:34;;;;;;;7.90;5.00;;;13.50;99.90;;;;;;5054385;28;20072;-79
2022/10/26 09:06:45;;;;;;;8.90;4.68;;;13.60;99.90;;;;;;5053911;28;20033;-79
2022/10/26 09:09:21;;;;;;;6.43;4.20;;;13.70;99.90;;;;;;5054808;28;20049;-79
2022/10/26 09:12:16;;;;;;;10.05;4.80;;;13.70;99.90;;;;;;5053811;28;20052;-79
2022/10/26 09:15:07;;;;;;;7.85;4.28;;;13.80;99.90;;;;;;5045704;28;20052;-79
2022/10/26 09:18:04;;;;;;;10.23;4.57;;;13.90;99.90;;;;;;5054224;28;20041;-79
2022/10/26 09:21:03;;;;;;;8.50;4.25;;;13.80;99.90;;;;;;5054245;28;20168;-79
2022/10/26 09:23:53;;;;;;;9.00;4.25;;;13.90;99.90;;;;;;5037052;28;20052;-80
2022/10/26 09:26:51;;;;;;;8.88;4.43;;;14.00;99.90;;;;;;5037992;28;20033;-81
2022/10/26 09:29:20;;;;;;;8.52;4.30;;;14.10;99.90;;;;;;5053861;28;20040;-78
2022/10/26 09:31:48;;;;;;;6.35;4.65;;;14.20;99.90;;;;;;5053950;28;20041;-79
2022/10/26 09:34:27;;;;;;;7.15;4.18;;;14.30;99.90;;;;;;5037284;28;20040;-80
2022/10/26 09:36:54;;;;;;;7.10;3.97;;;14.30;99.90;;;;;;5053804;28;20048;-80
2022/10/26 09:39:35;;;;;;;7.38;3.80;;;14.30;99.90;;;;;;5052859;28;20051;-80
2022/10/26 09:42:20;;;;;;;8.38;4.20;;;14.40;99.90;;;;;;5053551;28;20068;-79
2022/10/26 09:44:53;;;;;;;4.63;3.75;;;14.50;99.90;;;;;;5037019;28;20072;-81
2022/10/26 09:47:27;;;;;;;;;;;14.60;99.90;;;;;;5054175;28;20045;-80
2022/10/26 09:49:57;;;;;;;5.68;3.58;;;14.70;99.90;;;;;;5037853;28;19956;-80
2022/10/26 09:52:23;;;;;;;6.30;3.90;;;14.80;99.90;;;;;;5055010;28;20525;-80
2022/10/26 09:54:48;;;;;;;5.97;3.53;;;15.00;99.90;;;;;;5053857;28;20036;-79
2022/10/26 09:57:17;;;;;;;6.50;3.70;;;15.00;99.90;;;;;;5053748;28;20045;-80
2022/10/26 09:59:44;;;;;;;7.03;3.47;;;15.10;99.90;;;;;;5036322;28;20048;-80
2022/10/26 10:02:45;;;;;;;5.80;3.40;;;15.20;99.90;;;;;;5052757;28;20506;-80
2022/10/26 10:05:21;;;;;;;6.65;3.35;;;15.30;99.90;;;;;;5053742;28;20099;-80
2022/10/26 10:07:47;;;;;;;10.35;3.75;;;15.40;99.90;;;;;;5054182;28;20087;-81
2022/10/26 10:10:15;;;;;;;7.82;3.30;;;15.50;99.90;;;;;;5033623;28;20037;-79
2022/10/26 10:12:41;;;;;;;5.55;3.30;;;15.60;99.90;;;;;;5033366;28;20071;-79
2022/10/26 10:15:20;;;;;;;9.40;3.72;;;15.50;99.90;;;;;;5050854;28;20041;-79
2022/10/26 10:17:51;;;;;;;6.40;3.30;;;15.50;99.90;;;;;;5044438;28;20043;-80
2022/10/26 10:20:22;;;;;;;5.55;3.60;;;15.50;99.90;;;;;;5051727;28;20387;-78
2022/10/26 10:23:00;;;;;;;9.10;3.30;;;15.50;99.90;;;;;;5050904;28;20084;-79
2022/10/26 10:25:34;;;;;;;9.45;4.20;;;15.50;99.90;;;;;;5042153;28;20040;-78
2022/10/26 10:28:00;;;;;;;7.05;3.35;;;15.50;99.90;;;;;;5044281;28;20380;-78
2022/10/26 10:30:31;;;;;;;5.75;3.38;;;15.50;99.90;;;;;;5051670;28;20398;-79
2022/10/26 10:33:10;;;;;;;7.22;3.60;;;15.50;99.90;;;;;;5044433;28;20525;-79
2022/10/26 10:35:39;;;;;;;6.85;3.35;;;15.60;99.90;;;;;;5051931;28;20044;-79
2022/10/26 10:38:05;;;;;;;7.93;3.78;;;15.60;99.90;;;;;;5050879;28;20041;-78
2022/10/26 10:40:31;;;;;;;5.88;3.28;;;15.70;99.90;;;;;;5049764;28;20036;-79
2022/10/26 10:43:11;;;;;;;7.72;3.33;;;15.70;99.90;;;;;;5051634;28;20068;-78
2022/10/26 10:45:37;;;;;;;4.35;3.28;;;15.80;99.90;;;;;;5049794;28;20060;-78
2022/10/26 10:48:11;;;;;;;9.10;3.70;;;15.80;99.90;;;;;;5032872;28;20518;-78
2022/10/26 10:50:49;;;;;;;7.80;3.38;;;15.90;99.90;;;;;;5051041;28;20029;-79
2022/10/26 10:53:18;;;;;;;4.65;2.78;;;15.90;99.90;;;;;;5051395;28;20033;-79
2022/10/26 10:55:55;;;;;;;8.77;3.42;;;16.00;99.90;;;;;;5051210;28;20047;-78
2022/10/26 10:58:35;;;;;;;6.45;3.10;;;16.10;99.90;;;;;;5045424;28;20102;-79
2022/10/26 11:01:01;;;;;;;5.97;3.08;;;16.20;99.90;;;;;;5048261;28;20045;-79
2022/10/26 11:03:56;;;;;;;6.18;3.92;;;16.30;99.90;;;;;;5047237;28;20045;-78
2022/10/26 11:06:27;;;;;;;6.07;3.25;;;16.30;99.90;;;;;;5023372;28;20692;-78
2022/10/26 11:09:04;;;;;;;6.35;3.33;;;16.40;99.90;;;;;;5046836;28;20068;-79
2022/10/26 11:11:42;;;;;;;6.03;2.90;;;16.60;99.90;;;;;;5042766;28;20582;-79
2022/10/26 11:14:33;;;;;;;5.28;3.20;;;16.70;99.90;;;;;;5026332;28;20036;-77
2022/10/26 11:17:07;;;;;;;4.93;2.80;;;16.60;99.90;;;;;;5047162;28;20576;-78
2022/10/26 11:20:08;;;;;;;7.00;3.10;;;16.70;99.90;;;;;;5044227;28;20040;-79
2022/10/26 11:22:55;;;;;;;7.15;3.30;;;16.80;99.90;;;;;;5034978;28;20072;-78
2022/10/26 11:25:28;;;;;;;6.68;2.75;;;16.90;99.90;;;;;;5040285;28;20041;-78
2022/10/26 11:28:01;;;;;;;6.15;3.03;;;16.90;99.90;;;;;;5045683;28;20094;-78
2022/10/26 11:30:29;;;;;;;6.03;2.78;;;17.00;99.90;;;;;;5047348;28;20044;-77
2022/10/26 11:33:21;;;;;;;5.32;2.88;;;17.00;99.90;;;;;;5053325;28;20041;-79
2022/10/26 11:35:56;;;;;;;5.43;2.60;;;17.10;99.90;;;;;;5034484;28;20044;-79
2022/10/26 11:38:32;;;;;;;5.97;2.70;;;17.00;99.90;;;;;;5030486;28;20533;-78
2022/10/26 11:41:23;;;;;;;8.20;2.50;;;17.10;99.90;;;;;;5029996;28;20041;-78
2022/10/26 11:43:56;;;;;;;5.40;2.70;;;17.30;99.90;;;;;;5034939;28;20148;-79
2022/10/26 11:46:29;;;;;;;7.20;2.58;;;17.40;99.90;;;;;;5047697;28;20036;-78
2022/10/26 11:48:57;;;;;;;7.38;2.60;;;17.50;99.90;;;;;;5030978;28;20148;-78
2022/10/26 11:51:44;;;;;;;5.07;1.95;;;17.70;99.90;;;;;;5049567;28;20069;-77
2022/10/26 11:54:35;;;;;;;4.07;2.25;;;17.80;99.90;;;;;;5050508;28;20047;-78
2022/10/26 11:57:03;;;;;;;6.47;2.42;;;18.00;99.90;;;;;;5049362;28;20044;-78
2022/10/26 11:59:36;;;;;;;4.32;2.25;;;18.10;99.90;;;;;;5050881;28;20441;-78
2022/10/26 12:02:09;;;;;;;6.57;2.13;;;18.20;99.90;;;;;;5048874;28;20414;-78
2022/10/26 12:04:37;;;;;;;5.07;2.40;;;18.30;99.90;;;;;;5048866;28;20090;-77
2022/10/26 12:07:10;;;;;;;4.40;2.30;;;18.30;99.90;;;;;;5047917;28;20046;-78
2022/10/26 12:09:38;;;;;;;5.10;2.45;;;18.40;99.90;;;;;;5048343;28;20041;-79
2022/10/26 12:12:18;;;;;;;8.60;2.72;;;18.40;99.90;;;;;;5049507;28;20104;-79
2022/10/26 12:15:15;;;;;;;6.40;2.47;;;18.50;99.90;;;;;;5049255;28;20075;-78
2022/10/26 12:18:01;;;;;;;7.78;2.60;;;18.40;99.90;;;;;;5049148;28;20419;-78
2022/10/26 12:20:44;;;;;;;5.30;2.10;;;18.20;99.90;;;;;;5045189;28;20040;-77
2022/10/26 12:23:11;;;;;;;5.10;2.60;;;18.20;99.90;;;;;;5047645;28;20033;-78
2022/10/26 12:25:37;;;;;;;4.05;2.22;;;18.20;99.90;;;;;;5044732;28;20032;-79
2022/10/26 12:28:02;;;;;;;7.20;2.40;;;18.30;99.90;;;;;;5049395;28;20033;-77
2022/10/26 12:30:28;;;;;;;4.53;2.35;;;18.40;99.90;;;;;;5033564;28;20495;-79
2022/10/26 12:33:21;;;;;;;9.20;2.72;;;18.50;99.90;;;;;;5049234;28;20095;-78
2022/10/26 12:35:46;;;;;;;5.88;2.50;;;18.60;99.90;;;;;;5032676;28;20144;-78
2022/10/26 12:38:24;;;;;;;5.55;2.70;;;18.50;99.90;;;;;;5044404;28;20495;-78
2022/10/26 12:41:05;;;;;;;10.30;2.85;;;18.30;99.90;;;;;;5020372;28;20041;-78
2022/10/26 12:43:35;;;;;;;8.45;2.90;;;18.20;99.90;;;;;;5042842;28;20110;-78
2022/10/26 12:46:13;;;;;;;6.72;2.80;;;18.10;99.90;;;;;;5046272;28;20084;-78
2022/10/26 12:48:41;;;;;;;6.70;3.00;;;18.10;99.90;;;;;;5046698;28;20044;-78
2022/10/26 12:51:23;;;;;;;7.38;3.00;;;18.00;99.90;;;;;;5046940;28;20029;-78
2022/10/26 12:53:56;;;;;;;6.55;3.28;;;18.00;99.90;;;;;;5046258;28;20055;-78
2022/10/26 12:56:43;;;;;;;6.70;2.97;;;17.90;99.90;;;;;;5047412;28;20049;-78
2022/10/26 12:59:22;;;;;;;9.88;3.13;;;17.90;99.90;;;;;;5031268;28;20092;-78
2022/10/26 13:02:06;;;;;;;4.75;2.67;;;18.00;99.90;;;;;;5048246;28;20040;-78
2022/10/26 13:04:48;;;;;;;8.00;3.38;;;18.10;99.90;;;;;;5032692;28;20059;-78
2022/10/26 13:07:25;;;;;;;10.80;3.40;;;18.10;99.90;;;;;;5049041;28;20052;-78